Terminal Aerodrome Forecast
Issued by NWS Jackson, MS

Home | Current Version | Previous Version | Text Only | Print | Product List | Glossary On
Versions: 1 2 3 4 5 6 7 8 9 10 11 12 13 14 15 16 17 18 19 20 21 22 23 24 25
000
FTUS44 KJAN 021700
TAFJAN
TAF
KJAN 021738Z 0218/0318 17004KT P6SM VCTS SCT015 SCT050CB BKN250
     FM022200 18005KT P6SM SHRA VCTS SCT025CB SCT050
     FM030100 15003KT P6SM SCT100
     FM031100 00000KT 5SM BR SCT250
     FM031400 VRB03KT P6SM SCT250=

USA.gov is the U.S. government's official web portal to all federal, state and local government web resources and services.